Cabot Strait: Past 24 Hour Conditions

 

Daniel's Harbour

06:30 AM NST 28 December 2014
Disclaimer

This table is a summary of hourly weather conditions for the past 24 hours.
Please note that these observations might not always be representative of weather conditions over their associated marine area.

Date / Time
(NST)
Wind(knots) Conditions Visibility(km) Pressure(kPa) Air tempC) Relative humidity(%) Dew pointC) Wind Chill
28 December 2014
6:30 SW 11 gust 17 N/A 15 100.4 -2 59 -9 -8
5:30 WSW 14 gust 19 N/A 15 100.4 -3 58 -10 -9
4:30 WSW 13 gust 20 N/A 15 100.4 -3 57 -10 -9
3:30 WSW 12 gust 21 N/A 15 100.5 -2 57 -9 -8
2:30 WSW 13 N/A 15 100.5 -2 58 -9 -8
1:30 WSW 13 N/A 15 100.5 -2 57 -9 -8
0:30 WSW 9 gust 15 N/A 15 100.5 -2 53 -10 -7
27 December 2014
23:30 W 13 gust 24 N/A 15 100.5 -1 55 -9 -7
22:30 W 13 N/A 15 100.5 -1 54 -9 -7
21:30 W 12 gust 20 N/A 15 100.4 -1 52 -10 -7
20:30 W 13 gust 21 N/A 15 100.3 -1 52 -9 -7
19:30 W 17 gust 25 N/A 15 100.3 -1 52 -9 -7
18:30 W 19 N/A 15 100.2 0 51 -9 -8
17:30 WNW 20 gust 28 N/A 15 100.1 -1 51 -9 -8
16:30 W 21 gust 28 N/A 15 100.0 -1 53 -9 -8
15:30 W 18 gust 25 N/A 15 99.9 -1 56 -8 -8
14:30 W 16 gust 25 N/A 15 99.8 -1 56 -8 -7
13:30 W 20 gust 28 N/A 15 99.8 -1 55 -8 -8
12:30 W 21 gust 27 N/A 15 99.8 -1 55 -9 -8
11:30 W 22 gust 29 N/A 15 99.8 -1 55 -9 -8
10:30 W 21 gust 28 N/A 15 99.8 0 53 -9 -7
9:30 W 22 gust 28 N/A 15 99.7 0 54 -8 -8
8:30 W 22 gust 28 N/A 15 99.7 0 55 -8 *
7:30 WSW 22 gust 30 N/A 15 99.7 0 55 -8 *
6:30 W 23 gust 31 N/A 15 99.6 1 56 -7 *
Map of Atlantic - Newfoundland marine weather areas Southwestern Grand Banks - 44138 Banquereau - 44139 Tail of the Bank - 44140 Nickerson Bank - 44251 Northeast Burgeo Bank - 44255 Blanc-Sablon Airport Cap Whittle Chevery Natashquan Airport Heath Point Miscou Island Grand Étang Ingonish Beach North Mountain St.Paul Island J.A. Douglas McCurdy Sydney Airport Charlottetown Airport East Point North Cape Argentia Bonavista Burgeo Cape Race Corner Brook Daniel's Harbour Englee Ferolle Point La Scie Port aux Basques Rocky Harbour Sagona Island St. Anthony Airport St. John's Int'l Airport St. Lawrence Stephenville Airport Twillingate Winterland Wreckhouse Cartwright Airport Mary's Harbour Grates Cove Pool's Island Marticot Island Long Pond Îles de la Madeleine Airport
Legend:
buoy Buoy
land station Land Station

Atlantic - Newfoundland Area

Another Region

What we are doing

Date modified: